Webcam Meteoipassi more information Webcam Meteoipassi


Pisa torre orologio more information Pisa torre orologio


altri nostri siti meteo:

Pomeziameteo 1Sito sul meteo

Pomeziameteo DashboardSito sul meteo

Caput FrigorisSito sul meteo

BarcellonameteoSito sul meteo

MeteoipassiSito sul meteo

MeteotortoretoSito sul meteo

MeteospinacetoSito sul meteo

MeteoardeaSito sul meteo

MeteopalestrinaSito sul meteo

MeteocastelliSito sul meteo

MeteoGonzagaSito sul meteo

MeteoiserniaSito sul meteo

MeteolatinaSito sul meteo

RomaeurmeteoSito sul meteo

MeteomarconiaSito sul meteo



Nessuna attenzione particolare richiesta.    Non ci sono allerte meteo

Report METAR

   
LIRQ - Firenze
Dati ricevuti: Nov 24 2017 2:20 am
Molto nuvoloso  
Molto nuvoloso  
   Vento: W 5.6 km/h
Vento: W 5.6 km/h
Temperatura: 8°C
Temperatura Vento: 7°C
P.to Rugiada: 8°C
Umidità: 100%
Barometro: 1022 hPa
Nuvole: Molto nuvoloso
Visibilità: 8 km
dettagli cloud: Molto nuvoloso 914.4 m
LIRQ 240120Z 29003KT 8000 BKN030 08/08 Q1022
LIRP - Lucca
Dati ricevuti: Nov 24 2017 2:15 am
Shallow Fog, Parzialmente nuvoloso  
Shallow Fog, Parzialmente nuvoloso  
   Vento: Oriente 3.7 km/h
Vento: Oriente 3.7 km/h
Temperatura: 10°C
P.to Rugiada: 9°C
Umidità: 94%
Barometro: 1021 hPa
Nuvole: Parzialmente nuvoloso
Visibilità: 7 km
dettagli cloud: Parzialmente nuvoloso 1524 m
LIRP 240115Z 10002KT 7000 MIFG SCT050 10/09 Q1021 TEMPO 5000
LIRP - Livorno
Dati ricevuti: Nov 24 2017 2:15 am
Shallow Fog, Parzialmente nuvoloso  
Shallow Fog, Parzialmente nuvoloso  
   Vento: Oriente 3.7 km/h
Vento: Oriente 3.7 km/h
Temperatura: 10°C
P.to Rugiada: 9°C
Umidità: 94%
Barometro: 1021 hPa
Nuvole: Parzialmente nuvoloso
Visibilità: 7 km
dettagli cloud: Parzialmente nuvoloso 1524 m
LIRP 240115Z 10002KT 7000 MIFG SCT050 10/09 Q1021 TEMPO 5000
LIMP - Parma
Dati ricevuti: Nov 23 2017 8:50 pm
DATI Obsoleti
Nebbia, Parzialmente nuvoloso  
Nebbia, Parzialmente nuvoloso  
   Vento: S 7.4 km/h
Vento: S 7.4 km/h
Temperatura: 7°C
Temperatura Vento: 6°C
P.to Rugiada: 7°C
Umidità: 100%
Barometro: 1021 hPa
Nuvole: Parzialmente nuvoloso
Visibilità: 2 km
dettagli cloud: Parzialmente nuvoloso
LIMP 231950Z 20004KT 2000 BR NSC 07/07 Q1021
LIRF - Roma
Dati ricevuti: Nov 24 2017 2:20 am
Sereno  
Sereno  
   Vento: Oriente 11.1 km/h
Vento: Oriente 11.1 km/h
Temperatura: 10°C
Temperatura Vento: 8°C
P.to Rugiada: 9°C
Umidità: 94%
Barometro: 1022 hPa
Visibilità: oltre 10 km
dettagli cloud: Sereno
LIRF 240120Z 09006KT CAVOK 10/09 Q1022 NOSIG
 

Script sviluppato da  Saratoga-weather.org Adattato per il modello da  Weerstation Leuven

Potete trovare le nostre info meteo anche a:

European Weather Network

Weather Underground

AWEKAS

HAMweather, WeatherForYou, PWS Weather

Strumentazione usata:

Stazione meteo
Oregon Scientific WMR88

Programma gestore dati meteo
WVIEW

Server per i dati meteo
WDS-5

Provider
Anemos WDS-5

Oregon Scientific WMR88

WVIEW

WDS-5

Anemos WDS-5